sensor_id;sensor_type;location;lat;lon;timestamp;temperature;humidity
51655;DHT22;37732;53.106;7.030;2023-07-02T00:01:04;15.80;99.90
51655;DHT22;37732;53.106;7.030;2023-07-02T00:03:30;15.80;99.90
51655;DHT22;37732;53.106;7.030;2023-07-02T00:05:55;15.70;99.90
51655;DHT22;37732;53.106;7.030;2023-07-02T00:08:22;15.60;99.90
51655;DHT22;37732;53.106;7.030;2023-07-02T00:10:48;15.60;99.90
51655;DHT22;37732;53.106;7.030;2023-07-02T00:13:14;15.60;99.90
51655;DHT22;37732;53.106;7.030;2023-07-02T00:15:39;15.60;99.90
51655;DHT22;37732;53.106;7.030;2023-07-02T00:18:05;15.50;99.90
51655;DHT22;37732;53.106;7.030;2023-07-02T00:20:30;15.60;99.90
51655;DHT22;37732;53.106;7.030;2023-07-02T00:23:00;15.60;99.90
51655;DHT22;37732;53.106;7.030;2023-07-02T00:25:26;15.50;99.90
51655;DHT22;37732;53.106;7.030;2023-07-02T00:27:52;15.50;99.90
51655;DHT22;37732;53.106;7.030;2023-07-02T00:30:17;15.50;99.90
51655;DHT22;37732;53.106;7.030;2023-07-02T00:32:43;15.40;99.90
51655;DHT22;37732;53.106;7.030;2023-07-02T00:35:08;15.40;99.90
51655;DHT22;37732;53.106;7.030;2023-07-02T00:37:34;15.40;99.90
51655;DHT22;37732;53.106;7.030;2023-07-02T00:39:59;15.30;99.90
51655;DHT22;37732;53.106;7.030;2023-07-02T00:42:25;15.30;99.90
51655;DHT22;37732;53.106;7.030;2023-07-02T00:44:55;15.30;99.90
51655;DHT22;37732;53.106;7.030;2023-07-02T00:47:23;15.30;99.90
51655;DHT22;37732;53.106;7.030;2023-07-02T00:49:48;15.30;99.90
51655;DHT22;37732;53.106;7.030;2023-07-02T00:52:14;15.20;99.90
51655;DHT22;37732;53.106;7.030;2023-07-02T00:54:40;15.20;99.90
51655;DHT22;37732;53.106;7.030;2023-07-02T00:57:06;15.10;99.90
51655;DHT22;37732;53.106;7.030;2023-07-02T00:59:32;15.10;99.90
51655;DHT22;37732;53.106;7.030;2023-07-02T01:02:01;15.00;99.90
51655;DHT22;37732;53.106;7.030;2023-07-02T01:04:26;15.00;99.90
51655;DHT22;37732;53.106;7.030;2023-07-02T01:06:53;14.90;99.90
51655;DHT22;37732;53.106;7.030;2023-07-02T01:09:23;14.90;99.90
51655;DHT22;37732;53.106;7.030;2023-07-02T01:11:53;14.80;99.90
51655;DHT22;37732;53.106;7.030;2023-07-02T01:16:45;14.70;99.90
51655;DHT22;37732;53.106;7.030;2023-07-02T01:21:58;14.60;99.90
51655;DHT22;37732;53.106;7.030;2023-07-02T01:24:23;14.60;99.90
51655;DHT22;37732;53.106;7.030;2023-07-02T01:26:49;14.50;99.90
51655;DHT22;37732;53.106;7.030;2023-07-02T01:29:15;14.50;99.90
51655;DHT22;37732;53.106;7.030;2023-07-02T01:31:40;14.50;99.90
51655;DHT22;37732;53.106;7.030;2023-07-02T01:34:06;14.50;99.90
51655;DHT22;37732;53.106;7.030;2023-07-02T01:36:33;14.40;99.90
51655;DHT22;37732;53.106;7.030;2023-07-02T01:38:59;14.40;99.90
51655;DHT22;37732;53.106;7.030;2023-07-02T01:41:24;14.30;99.90
51655;DHT22;37732;53.106;7.030;2023-07-02T01:43:50;14.30;99.90
51655;DHT22;37732;53.106;7.030;2023-07-02T01:46:15;14.20;99.90
51655;DHT22;37732;53.106;7.030;2023-07-02T01:48:41;14.20;99.90
51655;DHT22;37732;53.106;7.030;2023-07-02T01:51:07;14.10;99.90
51655;DHT22;37732;53.106;7.030;2023-07-02T01:53:32;14.00;99.90
51655;DHT22;37732;53.106;7.030;2023-07-02T01:55:58;13.80;99.90
51655;DHT22;37732;53.106;7.030;2023-07-02T01:58:24;13.70;99.90
51655;DHT22;37732;53.106;7.030;2023-07-02T02:00:50;13.60;99.90
51655;DHT22;37732;53.106;7.030;2023-07-02T02:03:16;13.40;99.90
51655;DHT22;37732;53.106;7.030;2023-07-02T02:05:41;13.30;99.90
51655;DHT22;37732;53.106;7.030;2023-07-02T02:08:07;13.20;99.90
51655;DHT22;37732;53.106;7.030;2023-07-02T02:10:32;13.00;99.90
51655;DHT22;37732;53.106;7.030;2023-07-02T02:12:58;13.00;99.90
51655;DHT22;37732;53.106;7.030;2023-07-02T02:15:24;12.90;99.90
51655;DHT22;37732;53.106;7.030;2023-07-02T02:17:49;12.90;99.90
51655;DHT22;37732;53.106;7.030;2023-07-02T02:20:15;12.80;99.90
51655;DHT22;37732;53.106;7.030;2023-07-02T02:22:40;12.80;99.90
51655;DHT22;37732;53.106;7.030;2023-07-02T02:25:06;12.70;99.90
51655;DHT22;37732;53.106;7.030;2023-07-02T02:27:31;12.70;99.90
51655;DHT22;37732;53.106;7.030;2023-07-02T02:29:57;12.60;99.90
51655;DHT22;37732;53.106;7.030;2023-07-02T02:32:23;12.50;99.90
51655;DHT22;37732;53.106;7.030;2023-07-02T02:34:49;12.40;99.90
51655;DHT22;37732;53.106;7.030;2023-07-02T02:37:15;12.40;99.90
51655;DHT22;37732;53.106;7.030;2023-07-02T02:39:40;12.40;99.90
51655;DHT22;37732;53.106;7.030;2023-07-02T02:42:06;12.40;99.90
51655;DHT22;37732;53.106;7.030;2023-07-02T02:44:31;12.40;99.90
51655;DHT22;37732;53.106;7.030;2023-07-02T02:46:57;12.40;99.90
51655;DHT22;37732;53.106;7.030;2023-07-02T02:49:23;12.40;99.90
51655;DHT22;37732;53.106;7.030;2023-07-02T02:51:49;12.30;99.90
51655;DHT22;37732;53.106;7.030;2023-07-02T02:54:15;12.40;99.90
51655;DHT22;37732;53.106;7.030;2023-07-02T02:56:40;12.40;99.90
51655;DHT22;37732;53.106;7.030;2023-07-02T02:59:07;12.40;99.90
51655;DHT22;37732;53.106;7.030;2023-07-02T03:01:32;12.40;99.90
51655;DHT22;37732;53.106;7.030;2023-07-02T03:03:58;12.50;99.90
51655;DHT22;37732;53.106;7.030;2023-07-02T03:06:24;12.50;99.90
51655;DHT22;37732;53.106;7.030;2023-07-02T03:08:50;12.50;99.90
51655;DHT22;37732;53.106;7.030;2023-07-02T03:11:16;12.50;99.90
51655;DHT22;37732;53.106;7.030;2023-07-02T03:13:41;12.50;99.90
51655;DHT22;37732;53.106;7.030;2023-07-02T03:16:07;12.50;99.90
51655;DHT22;37732;53.106;7.030;2023-07-02T03:18:33;12.50;99.90
51655;DHT22;37732;53.106;7.030;2023-07-02T03:20:59;12.40;99.90
51655;DHT22;37732;53.106;7.030;2023-07-02T03:23:24;12.40;99.90
51655;DHT22;37732;53.106;7.030;2023-07-02T03:25:50;12.40;99.90
51655;DHT22;37732;53.106;7.030;2023-07-02T03:28:15;12.40;99.90
51655;DHT22;37732;53.106;7.030;2023-07-02T03:30:41;12.40;99.90
51655;DHT22;37732;53.106;7.030;2023-07-02T03:33:08;12.50;99.90
51655;DHT22;37732;53.106;7.030;2023-07-02T03:35:34;12.50;99.90
51655;DHT22;37732;53.106;7.030;2023-07-02T03:37:59;12.50;99.90
51655;DHT22;37732;53.106;7.030;2023-07-02T03:40:25;12.60;99.90
51655;DHT22;37732;53.106;7.030;2023-07-02T03:42:51;12.50;99.90
51655;DHT22;37732;53.106;7.030;2023-07-02T03:45:16;12.60;99.90
51655;DHT22;37732;53.106;7.030;2023-07-02T03:47:42;12.60;99.90
51655;DHT22;37732;53.106;7.030;2023-07-02T03:50:08;12.60;99.90
51655;DHT22;37732;53.106;7.030;2023-07-02T03:52:34;12.60;99.90
51655;DHT22;37732;53.106;7.030;2023-07-02T03:54:59;12.60;99.90
51655;DHT22;37732;53.106;7.030;2023-07-02T03:57:25;12.70;99.90
51655;DHT22;37732;53.106;7.030;2023-07-02T03:59:51;12.70;99.90
51655;DHT22;37732;53.106;7.030;2023-07-02T04:02:17;12.70;99.90
51655;DHT22;37732;53.106;7.030;2023-07-02T04:04:42;12.70;99.90
51655;DHT22;37732;53.106;7.030;2023-07-02T04:07:08;12.80;99.90
51655;DHT22;37732;53.106;7.030;2023-07-02T04:09:33;12.80;99.90
51655;DHT22;37732;53.106;7.030;2023-07-02T04:12:00;12.80;99.90
51655;DHT22;37732;53.106;7.030;2023-07-02T04:14:26;12.80;99.90
51655;DHT22;37732;53.106;7.030;2023-07-02T04:16:51;12.90;99.90
51655;DHT22;37732;53.106;7.030;2023-07-02T04:19:17;12.90;99.90
51655;DHT22;37732;53.106;7.030;2023-07-02T04:21:43;12.90;99.90
51655;DHT22;37732;53.106;7.030;2023-07-02T04:24:08;12.90;99.90
51655;DHT22;37732;53.106;7.030;2023-07-02T04:26:34;13.00;99.90
51655;DHT22;37732;53.106;7.030;2023-07-02T04:28:59;13.00;99.90
51655;DHT22;37732;53.106;7.030;2023-07-02T04:31:26;13.00;99.90
51655;DHT22;37732;53.106;7.030;2023-07-02T04:33:52;13.00;99.90
51655;DHT22;37732;53.106;7.030;2023-07-02T04:36:18;13.10;99.90
51655;DHT22;37732;53.106;7.030;2023-07-02T04:38:43;13.10;99.90
51655;DHT22;37732;53.106;7.030;2023-07-02T04:41:09;13.20;99.90
51655;DHT22;37732;53.106;7.030;2023-07-02T04:43:35;13.20;99.90
51655;DHT22;37732;53.106;7.030;2023-07-02T04:46:01;13.30;99.90
51655;DHT22;37732;53.106;7.030;2023-07-02T04:48:27;13.40;99.90
51655;DHT22;37732;53.106;7.030;2023-07-02T04:50:53;13.50;99.90
51655;DHT22;37732;53.106;7.030;2023-07-02T04:53:18;13.60;99.90
51655;DHT22;37732;53.106;7.030;2023-07-02T04:55:44;13.70;99.90
51655;DHT22;37732;53.106;7.030;2023-07-02T04:58:10;13.80;99.90
51655;DHT22;37732;53.106;7.030;2023-07-02T05:00:35;13.90;99.90
51655;DHT22;37732;53.106;7.030;2023-07-02T05:03:01;13.90;99.90
51655;DHT22;37732;53.106;7.030;2023-07-02T05:05:27;13.90;99.90
51655;DHT22;37732;53.106;7.030;2023-07-02T05:07:53;13.90;99.90
51655;DHT22;37732;53.106;7.030;2023-07-02T05:10:19;13.90;99.90
51655;DHT22;37732;53.106;7.030;2023-07-02T05:12:44;13.90;99.90
51655;DHT22;37732;53.106;7.030;2023-07-02T05:15:10;13.90;99.90
51655;DHT22;37732;53.106;7.030;2023-07-02T05:17:37;13.80;99.90
51655;DHT22;37732;53.106;7.030;2023-07-02T05:20:03;13.80;99.90
51655;DHT22;37732;53.106;7.030;2023-07-02T05:22:30;13.90;99.90
51655;DHT22;37732;53.106;7.030;2023-07-02T05:24:55;13.90;99.90
51655;DHT22;37732;53.106;7.030;2023-07-02T05:27:21;14.00;99.90
51655;DHT22;37732;53.106;7.030;2023-07-02T05:29:47;14.20;99.90
51655;DHT22;37732;53.106;7.030;2023-07-02T05:32:12;14.30;99.90
51655;DHT22;37732;53.106;7.030;2023-07-02T05:34:38;14.40;99.90
51655;DHT22;37732;53.106;7.030;2023-07-02T05:37:03;14.50;99.90
51655;DHT22;37732;53.106;7.030;2023-07-02T05:39:29;14.60;99.90
51655;DHT22;37732;53.106;7.030;2023-07-02T05:41:56;14.70;99.90
51655;DHT22;37732;53.106;7.030;2023-07-02T05:44:21;14.80;99.90
51655;DHT22;37732;53.106;7.030;2023-07-02T05:46:47;14.90;99.90
51655;DHT22;37732;53.106;7.030;2023-07-02T05:49:12;15.20;99.90
51655;DHT22;37732;53.106;7.030;2023-07-02T05:51:38;15.30;99.90
51655;DHT22;37732;53.106;7.030;2023-07-02T05:54:03;15.30;99.90
51655;DHT22;37732;53.106;7.030;2023-07-02T05:56:29;15.30;99.90
51655;DHT22;37732;53.106;7.030;2023-07-02T05:58:54;15.30;99.90
51655;DHT22;37732;53.106;7.030;2023-07-02T06:01:20;15.40;99.90
51655;DHT22;37732;53.106;7.030;2023-07-02T06:03:46;15.40;99.90
51655;DHT22;37732;53.106;7.030;2023-07-02T06:06:14;15.60;99.90
51655;DHT22;37732;53.106;7.030;2023-07-02T06:08:39;15.80;99.90
51655;DHT22;37732;53.106;7.030;2023-07-02T06:11:05;16.00;99.90
51655;DHT22;37732;53.106;7.030;2023-07-02T06:13:30;16.20;99.90
51655;DHT22;37732;53.106;7.030;2023-07-02T06:15:56;16.40;99.90
51655;DHT22;37732;53.106;7.030;2023-07-02T06:18:22;16.70;99.90
51655;DHT22;37732;53.106;7.030;2023-07-02T06:20:48;16.90;99.90
51655;DHT22;37732;53.106;7.030;2023-07-02T06:23:13;17.00;99.90
51655;DHT22;37732;53.106;7.030;2023-07-02T06:25:39;17.10;99.90
51655;DHT22;37732;53.106;7.030;2023-07-02T06:28:05;17.20;99.90
51655;DHT22;37732;53.106;7.030;2023-07-02T06:30:30;17.40;99.90
51655;DHT22;37732;53.106;7.030;2023-07-02T06:32:56;17.50;99.90
51655;DHT22;37732;53.106;7.030;2023-07-02T06:35:22;17.50;99.90
51655;DHT22;37732;53.106;7.030;2023-07-02T06:37:47;17.40;99.90
51655;DHT22;37732;53.106;7.030;2023-07-02T06:40:13;17.20;99.90
51655;DHT22;37732;53.106;7.030;2023-07-02T06:42:39;17.10;99.90
51655;DHT22;37732;53.106;7.030;2023-07-02T06:45:05;17.20;99.90
51655;DHT22;37732;53.106;7.030;2023-07-02T06:47:31;17.40;99.90
51655;DHT22;37732;53.106;7.030;2023-07-02T06:49:57;17.50;99.90
51655;DHT22;37732;53.106;7.030;2023-07-02T06:52:23;17.60;99.90
51655;DHT22;37732;53.106;7.030;2023-07-02T06:54:49;17.80;99.90
51655;DHT22;37732;53.106;7.030;2023-07-02T06:57:14;17.90;99.90
51655;DHT22;37732;53.106;7.030;2023-07-02T06:59:40;18.10;99.90
51655;DHT22;37732;53.106;7.030;2023-07-02T07:02:06;18.20;99.90
51655;DHT22;37732;53.106;7.030;2023-07-02T07:04:31;18.50;99.90
51655;DHT22;37732;53.106;7.030;2023-07-02T07:06:57;18.60;99.90
51655;DHT22;37732;53.106;7.030;2023-07-02T07:09:22;18.60;99.90
51655;DHT22;37732;53.106;7.030;2023-07-02T07:11:48;18.70;99.90
51655;DHT22;37732;53.106;7.030;2023-07-02T07:14:13;18.90;99.90
51655;DHT22;37732;53.106;7.030;2023-07-02T07:16:39;19.00;99.90
51655;DHT22;37732;53.106;7.030;2023-07-02T07:19:05;18.90;99.90
51655;DHT22;37732;53.106;7.030;2023-07-02T07:21:31;19.00;99.90
51655;DHT22;37732;53.106;7.030;2023-07-02T07:23:57;19.00;99.90
51655;DHT22;37732;53.106;7.030;2023-07-02T07:26:22;19.10;99.90
51655;DHT22;37732;53.106;7.030;2023-07-02T07:28:48;19.10;99.90
51655;DHT22;37732;53.106;7.030;2023-07-02T07:31:14;19.20;99.90
51655;DHT22;37732;53.106;7.030;2023-07-02T07:33:39;19.40;99.90
51655;DHT22;37732;53.106;7.030;2023-07-02T07:36:05;19.40;99.90
51655;DHT22;37732;53.106;7.030;2023-07-02T07:38:31;19.70;99.90
51655;DHT22;37732;53.106;7.030;2023-07-02T07:40:56;19.60;99.90
51655;DHT22;37732;53.106;7.030;2023-07-02T07:43:22;19.70;99.90
51655;DHT22;37732;53.106;7.030;2023-07-02T07:45:48;19.60;99.90
51655;DHT22;37732;53.106;7.030;2023-07-02T07:48:13;19.50;99.90
51655;DHT22;37732;53.106;7.030;2023-07-02T07:50:39;19.60;99.90
51655;DHT22;37732;53.106;7.030;2023-07-02T07:53:04;19.90;99.90
51655;DHT22;37732;53.106;7.030;2023-07-02T07:55:30;20.10;99.90
51655;DHT22;37732;53.106;7.030;2023-07-02T07:57:55;20.40;99.90
51655;DHT22;37732;53.106;7.030;2023-07-02T08:00:21;20.40;99.90
51655;DHT22;37732;53.106;7.030;2023-07-02T08:02:47;20.30;99.90
51655;DHT22;37732;53.106;7.030;2023-07-02T08:05:13;19.90;99.90
51655;DHT22;37732;53.106;7.030;2023-07-02T08:07:39;19.70;99.90
51655;DHT22;37732;53.106;7.030;2023-07-02T08:10:05;19.90;99.90
51655;DHT22;37732;53.106;7.030;2023-07-02T08:12:31;20.00;99.90
51655;DHT22;37732;53.106;7.030;2023-07-02T08:14:56;20.10;99.90
51655;DHT22;37732;53.106;7.030;2023-07-02T08:17:22;20.20;99.90
51655;DHT22;37732;53.106;7.030;2023-07-02T08:19:47;20.00;99.90
51655;DHT22;37732;53.106;7.030;2023-07-02T08:22:13;20.00;99.90
51655;DHT22;37732;53.106;7.030;2023-07-02T08:24:39;20.10;98.70
51655;DHT22;37732;53.106;7.030;2023-07-02T08:27:04;20.20;99.90
51655;DHT22;37732;53.106;7.030;2023-07-02T08:29:30;20.20;99.90
51655;DHT22;37732;53.106;7.030;2023-07-02T08:31:56;20.20;99.30
51655;DHT22;37732;53.106;7.030;2023-07-02T08:34:22;20.40;99.90
51655;DHT22;37732;53.106;7.030;2023-07-02T08:36:47;20.60;99.90
51655;DHT22;37732;53.106;7.030;2023-07-02T08:39:13;20.90;99.90
51655;DHT22;37732;53.106;7.030;2023-07-02T08:41:43;20.90;98.20
51655;DHT22;37732;53.106;7.030;2023-07-02T08:44:09;20.80;96.90
51655;DHT22;37732;53.106;7.030;2023-07-02T08:46:36;20.50;98.10
51655;DHT22;37732;53.106;7.030;2023-07-02T08:49:01;20.20;95.90
51655;DHT22;37732;53.106;7.030;2023-07-02T08:51:27;20.00;97.50
51655;DHT22;37732;53.106;7.030;2023-07-02T08:53:54;19.90;99.50
51655;DHT22;37732;53.106;7.030;2023-07-02T08:56:19;19.80;98.20
51655;DHT22;37732;53.106;7.030;2023-07-02T08:58:45;19.80;98.70
51655;DHT22;37732;53.106;7.030;2023-07-02T09:01:12;19.80;99.90
51655;DHT22;37732;53.106;7.030;2023-07-02T09:03:38;19.80;99.90
51655;DHT22;37732;53.106;7.030;2023-07-02T09:06:07;19.70;98.90
51655;DHT22;37732;53.106;7.030;2023-07-02T09:08:33;19.50;99.80
51655;DHT22;37732;53.106;7.030;2023-07-02T09:13:44;18.90;99.90
51655;DHT22;37732;53.106;7.030;2023-07-02T09:19:01;18.40;99.90
51655;DHT22;37732;53.106;7.030;2023-07-02T09:21:28;18.30;99.90
51655;DHT22;37732;53.106;7.030;2023-07-02T09:24:11;18.40;99.90
51655;DHT22;37732;53.106;7.030;2023-07-02T09:26:36;18.60;99.90
51655;DHT22;37732;53.106;7.030;2023-07-02T09:29:02;18.60;99.90
51655;DHT22;37732;53.106;7.030;2023-07-02T09:31:28;18.70;99.90
51655;DHT22;37732;53.106;7.030;2023-07-02T09:34:00;18.60;99.90
51655;DHT22;37732;53.106;7.030;2023-07-02T09:36:26;18.60;99.90
51655;DHT22;37732;53.106;7.030;2023-07-02T09:38:52;18.30;99.90
51655;DHT22;37732;53.106;7.030;2023-07-02T09:41:18;18.40;99.90
51655;DHT22;37732;53.106;7.030;2023-07-02T09:43:43;18.40;99.90
51655;DHT22;37732;53.106;7.030;2023-07-02T09:46:09;18.30;99.90
51655;DHT22;37732;53.106;7.030;2023-07-02T09:48:35;18.20;99.90
51655;DHT22;37732;53.106;7.030;2023-07-02T09:51:01;18.00;99.90
51655;DHT22;37732;53.106;7.030;2023-07-02T09:53:27;17.80;99.90
51655;DHT22;37732;53.106;7.030;2023-07-02T09:55:53;17.80;99.90
51655;DHT22;37732;53.106;7.030;2023-07-02T09:58:19;17.80;99.90
51655;DHT22;37732;53.106;7.030;2023-07-02T10:00:44;18.10;99.90
51655;DHT22;37732;53.106;7.030;2023-07-02T10:03:10;18.40;99.90
51655;DHT22;37732;53.106;7.030;2023-07-02T10:05:35;18.70;99.90
51655;DHT22;37732;53.106;7.030;2023-07-02T10:08:11;19.00;99.90
51655;DHT22;37732;53.106;7.030;2023-07-02T10:10:42;19.10;99.90
51655;DHT22;37732;53.106;7.030;2023-07-02T10:13:07;19.10;99.90
51655;DHT22;37732;53.106;7.030;2023-07-02T10:15:33;19.20;99.90
51655;DHT22;37732;53.106;7.030;2023-07-02T10:18:03;19.10;99.90
51655;DHT22;37732;53.106;7.030;2023-07-02T10:20:46;19.10;99.90
51655;DHT22;37732;53.106;7.030;2023-07-02T10:23:12;19.30;99.90
51655;DHT22;37732;53.106;7.030;2023-07-02T10:25:38;19.70;99.90
51655;DHT22;37732;53.106;7.030;2023-07-02T10:28:20;20.00;99.90
51655;DHT22;37732;53.106;7.030;2023-07-02T10:30:47;20.10;99.90
51655;DHT22;37732;53.106;7.030;2023-07-02T10:33:14;20.20;99.90
51655;DHT22;37732;53.106;7.030;2023-07-02T10:35:40;20.10;99.90
51655;DHT22;37732;53.106;7.030;2023-07-02T10:38:28;20.10;99.90
51655;DHT22;37732;53.106;7.030;2023-07-02T10:40:54;20.10;98.90
51655;DHT22;37732;53.106;7.030;2023-07-02T10:43:24;20.30;99.50
51655;DHT22;37732;53.106;7.030;2023-07-02T10:45:50;20.40;99.90
51655;DHT22;37732;53.106;7.030;2023-07-02T10:48:16;20.70;98.30
51655;DHT22;37732;53.106;7.030;2023-07-02T10:50:41;20.70;98.10
51655;DHT22;37732;53.106;7.030;2023-07-02T10:53:13;20.70;99.30
51655;DHT22;37732;53.106;7.030;2023-07-02T10:55:39;20.70;99.90
51655;DHT22;37732;53.106;7.030;2023-07-02T10:58:08;20.40;98.10
51655;DHT22;37732;53.106;7.030;2023-07-02T11:00:45;20.20;98.20
51655;DHT22;37732;53.106;7.030;2023-07-02T11:03:24;20.20;99.60
51655;DHT22;37732;53.106;7.030;2023-07-02T11:05:50;20.40;99.90
51655;DHT22;37732;53.106;7.030;2023-07-02T11:08:15;20.90;99.90
51655;DHT22;37732;53.106;7.030;2023-07-02T11:10:41;21.10;98.60
51655;DHT22;37732;53.106;7.030;2023-07-02T11:13:13;21.20;98.00
51655;DHT22;37732;53.106;7.030;2023-07-02T11:15:39;21.20;99.70
51655;DHT22;37732;53.106;7.030;2023-07-02T11:18:10;21.10;99.30
51655;DHT22;37732;53.106;7.030;2023-07-02T11:20:36;20.90;98.20
51655;DHT22;37732;53.106;7.030;2023-07-02T11:23:02;20.60;98.00
51655;DHT22;37732;53.106;7.030;2023-07-02T11:25:27;20.60;97.70
51655;DHT22;37732;53.106;7.030;2023-07-02T11:28:03;20.70;98.20
51655;DHT22;37732;53.106;7.030;2023-07-02T11:30:29;20.70;97.40
51655;DHT22;37732;53.106;7.030;2023-07-02T11:32:55;20.70;98.20
51655;DHT22;37732;53.106;7.030;2023-07-02T11:35:21;20.80;97.40
51655;DHT22;37732;53.106;7.030;2023-07-02T11:37:47;21.10;95.90
51655;DHT22;37732;53.106;7.030;2023-07-02T11:40:14;21.30;96.10
51655;DHT22;37732;53.106;7.030;2023-07-02T11:42:40;21.50;96.60
51655;DHT22;37732;53.106;7.030;2023-07-02T11:45:06;21.50;96.60
51655;DHT22;37732;53.106;7.030;2023-07-02T11:47:31;21.20;94.00
51655;DHT22;37732;53.106;7.030;2023-07-02T11:49:57;20.90;94.60
51655;DHT22;37732;53.106;7.030;2023-07-02T11:52:25;20.70;97.80
51655;DHT22;37732;53.106;7.030;2023-07-02T11:54:50;20.50;97.30
51655;DHT22;37732;53.106;7.030;2023-07-02T11:57:16;20.60;94.80
51655;DHT22;37732;53.106;7.030;2023-07-02T11:59:42;20.50;97.70
51655;DHT22;37732;53.106;7.030;2023-07-02T12:02:07;20.40;98.90
51655;DHT22;37732;53.106;7.030;2023-07-02T12:04:33;20.30;98.20
51655;DHT22;37732;53.106;7.030;2023-07-02T12:06:59;20.30;97.50
51655;DHT22;37732;53.106;7.030;2023-07-02T12:09:26;20.20;97.60
51655;DHT22;37732;53.106;7.030;2023-07-02T12:11:53;20.20;97.20
51655;DHT22;37732;53.106;7.030;2023-07-02T12:14:18;20.10;97.30
51655;DHT22;37732;53.106;7.030;2023-07-02T12:16:44;20.00;98.40
51655;DHT22;37732;53.106;7.030;2023-07-02T12:19:10;20.10;99.20
51655;DHT22;37732;53.106;7.030;2023-07-02T12:21:35;20.50;99.90
51655;DHT22;37732;53.106;7.030;2023-07-02T12:24:01;20.60;99.50
51655;DHT22;37732;53.106;7.030;2023-07-02T12:26:27;20.50;98.60
51655;DHT22;37732;53.106;7.030;2023-07-02T12:28:54;20.30;97.70
51655;DHT22;37732;53.106;7.030;2023-07-02T12:31:19;20.10;98.30
51655;DHT22;37732;53.106;7.030;2023-07-02T12:33:45;19.90;99.90
51655;DHT22;37732;53.106;7.030;2023-07-02T12:36:11;19.90;99.70
51655;DHT22;37732;53.106;7.030;2023-07-02T12:38:36;20.00;99.60
51655;DHT22;37732;53.106;7.030;2023-07-02T12:41:02;20.00;99.10
51655;DHT22;37732;53.106;7.030;2023-07-02T12:43:27;20.00;99.40
51655;DHT22;37732;53.106;7.030;2023-07-02T12:45:53;20.00;99.90
51655;DHT22;37732;53.106;7.030;2023-07-02T12:48:19;20.10;99.90
51655;DHT22;37732;53.106;7.030;2023-07-02T12:50:54;20.30;99.90
51655;DHT22;37732;53.106;7.030;2023-07-02T12:53:20;20.20;99.90
51655;DHT22;37732;53.106;7.030;2023-07-02T12:55:46;20.20;98.80
51655;DHT22;37732;53.106;7.030;2023-07-02T12:58:12;20.00;99.10
51655;DHT22;37732;53.106;7.030;2023-07-02T13:00:37;20.00;98.90
51655;DHT22;37732;53.106;7.030;2023-07-02T13:03:03;19.90;97.30
51655;DHT22;37732;53.106;7.030;2023-07-02T13:05:28;19.90;98.80
51655;DHT22;37732;53.106;7.030;2023-07-02T13:07:54;19.90;98.80
51655;DHT22;37732;53.106;7.030;2023-07-02T13:10:20;19.90;96.60
51655;DHT22;37732;53.106;7.030;2023-07-02T13:12:46;20.00;98.10
51655;DHT22;37732;53.106;7.030;2023-07-02T13:15:11;20.10;97.30
51655;DHT22;37732;53.106;7.030;2023-07-02T13:17:38;20.20;94.20
51655;DHT22;37732;53.106;7.030;2023-07-02T13:20:03;20.40;93.30
51655;DHT22;37732;53.106;7.030;2023-07-02T13:22:29;20.80;94.40
51655;DHT22;37732;53.106;7.030;2023-07-02T13:24:55;21.00;92.20
51655;DHT22;37732;53.106;7.030;2023-07-02T13:27:21;21.30;92.90
51655;DHT22;37732;53.106;7.030;2023-07-02T13:29:46;21.20;90.40
51655;DHT22;37732;53.106;7.030;2023-07-02T13:32:12;21.00;90.40
51655;DHT22;37732;53.106;7.030;2023-07-02T13:34:37;21.00;93.00
51655;DHT22;37732;53.106;7.030;2023-07-02T13:37:03;20.70;92.10
51655;DHT22;37732;53.106;7.030;2023-07-02T13:39:29;20.60;93.10
51655;DHT22;37732;53.106;7.030;2023-07-02T13:41:56;20.40;93.30
51655;DHT22;37732;53.106;7.030;2023-07-02T13:44:21;20.20;93.70
51655;DHT22;37732;53.106;7.030;2023-07-02T13:46:47;20.00;93.60
51655;DHT22;37732;53.106;7.030;2023-07-02T13:49:13;20.00;95.20
51655;DHT22;37732;53.106;7.030;2023-07-02T13:51:38;20.00;94.90
51655;DHT22;37732;53.106;7.030;2023-07-02T13:54:04;20.10;95.80
51655;DHT22;37732;53.106;7.030;2023-07-02T13:56:30;20.20;95.50
51655;DHT22;37732;53.106;7.030;2023-07-02T14:01:21;20.60;96.80
51655;DHT22;37732;53.106;7.030;2023-07-02T14:03:48;20.50;93.80
51655;DHT22;37732;53.106;7.030;2023-07-02T14:06:13;20.60;95.60
51655;DHT22;37732;53.106;7.030;2023-07-02T14:08:39;20.60;96.40
51655;DHT22;37732;53.106;7.030;2023-07-02T14:11:04;20.70;96.60
51655;DHT22;37732;53.106;7.030;2023-07-02T14:13:30;21.00;96.80
51655;DHT22;37732;53.106;7.030;2023-07-02T14:15:56;21.20;97.80
51655;DHT22;37732;53.106;7.030;2023-07-02T14:18:21;21.20;94.40
51655;DHT22;37732;53.106;7.030;2023-07-02T14:20:47;21.00;94.20
51655;DHT22;37732;53.106;7.030;2023-07-02T14:23:12;20.70;93.80
51655;DHT22;37732;53.106;7.030;2023-07-02T14:25:38;20.60;94.90
51655;DHT22;37732;53.106;7.030;2023-07-02T14:28:03;20.50;95.60
51655;DHT22;37732;53.106;7.030;2023-07-02T14:30:29;20.50;94.80
51655;DHT22;37732;53.106;7.030;2023-07-02T14:32:55;20.60;97.00
51655;DHT22;37732;53.106;7.030;2023-07-02T14:35:20;20.70;96.20
51655;DHT22;37732;53.106;7.030;2023-07-02T14:37:50;20.90;96.80
51655;DHT22;37732;53.106;7.030;2023-07-02T14:40:16;21.00;96.40
51655;DHT22;37732;53.106;7.030;2023-07-02T14:42:41;21.00;95.40
51655;DHT22;37732;53.106;7.030;2023-07-02T14:45:07;20.80;96.00
51655;DHT22;37732;53.106;7.030;2023-07-02T14:47:34;20.70;95.60
51655;DHT22;37732;53.106;7.030;2023-07-02T14:50:00;20.40;94.20
51655;DHT22;37732;53.106;7.030;2023-07-02T14:52:26;20.10;95.50
51655;DHT22;37732;53.106;7.030;2023-07-02T14:54:51;19.90;96.40
51655;DHT22;37732;53.106;7.030;2023-07-02T14:57:17;19.90;96.80
51655;DHT22;37732;53.106;7.030;2023-07-02T14:59:44;19.90;97.00
51655;DHT22;37732;53.106;7.030;2023-07-02T15:02:11;19.70;96.20
51655;DHT22;37732;53.106;7.030;2023-07-02T15:04:38;19.80;98.00
51655;DHT22;37732;53.106;7.030;2023-07-02T15:07:03;19.70;96.70
51655;DHT22;37732;53.106;7.030;2023-07-02T15:09:29;19.80;97.90
51655;DHT22;37732;53.106;7.030;2023-07-02T15:11:54;19.90;98.50
51655;DHT22;37732;53.106;7.030;2023-07-02T15:14:20;19.90;98.40
51655;DHT22;37732;53.106;7.030;2023-07-02T15:16:46;19.90;98.00
51655;DHT22;37732;53.106;7.030;2023-07-02T15:19:11;19.90;97.40
51655;DHT22;37732;53.106;7.030;2023-07-02T15:21:38;20.00;97.10
51655;DHT22;37732;53.106;7.030;2023-07-02T15:24:04;20.40;98.50
51655;DHT22;37732;53.106;7.030;2023-07-02T15:26:31;20.50;98.70
51655;DHT22;37732;53.106;7.030;2023-07-02T15:28:56;20.80;96.40
51655;DHT22;37732;53.106;7.030;2023-07-02T15:31:22;20.90;96.50
51655;DHT22;37732;53.106;7.030;2023-07-02T15:33:48;20.70;95.80
51655;DHT22;37732;53.106;7.030;2023-07-02T15:36:13;20.40;95.20